createdAt,value
2022-10-02T00:02:06.737Z,32.53
2022-10-02T00:04:40.830Z,33.25
2022-10-02T00:07:12.746Z,32.83
2022-10-02T00:09:46.406Z,33.15
2022-10-02T00:12:19.594Z,32.95
2022-10-02T00:14:49.862Z,34.00
2022-10-02T00:17:22.377Z,33.15
2022-10-02T00:19:55.082Z,32.80
2022-10-02T00:22:35.491Z,33.55
2022-10-02T00:25:14.843Z,32.97
2022-10-02T00:28:02.250Z,33.40
2022-10-02T00:30:38.222Z,33.90
2022-10-02T00:33:15.296Z,33.78
2022-10-02T00:36:02.354Z,34.25
2022-10-02T00:38:42.113Z,32.90
2022-10-02T00:41:25.223Z,32.22
2022-10-02T00:44:10.649Z,31.63
2022-10-02T00:46:47.340Z,33.30
2022-10-02T00:49:59.635Z,32.13
2022-10-02T00:52:45.387Z,30.98
2022-10-02T00:55:29.891Z,30.83
2022-10-02T00:58:13.260Z,30.92
2022-10-02T01:00:44.494Z,32.05
2022-10-02T01:03:19.208Z,32.63
2022-10-02T01:05:47.643Z,30.85
2022-10-02T01:08:15.589Z,32.67
2022-10-02T01:10:44.426Z,32.45
2022-10-02T01:13:13.976Z,32.28
2022-10-02T01:15:47.641Z,33.22
2022-10-02T01:18:18.452Z,34.25
2022-10-02T01:20:48.372Z,33.58
2022-10-02T01:23:24.529Z,34.75
2022-10-02T01:25:53.999Z,33.08
2022-10-02T01:28:23.353Z,34.50
2022-10-02T01:30:54.692Z,34.35
2022-10-02T01:33:23.506Z,34.55
2022-10-02T01:35:51.805Z,34.40
2022-10-02T01:38:24.693Z,34.00
2022-10-02T01:40:54.355Z,34.90
2022-10-02T01:43:26.759Z,34.28
2022-10-02T01:46:08.901Z,35.33
2022-10-02T01:48:46.760Z,34.88
2022-10-02T01:51:28.655Z,35.05
2022-10-02T01:54:06.194Z,34.97
2022-10-02T01:56:41.119Z,35.88
2022-10-02T01:59:22.025Z,34.92
2022-10-02T02:01:59.297Z,35.85
2022-10-02T02:04:31.033Z,36.53
2022-10-02T02:07:05.329Z,35.60
2022-10-02T02:09:42.211Z,34.67
2022-10-02T02:12:16.510Z,35.60
2022-10-02T02:14:48.997Z,35.35
2022-10-02T02:17:24.772Z,35.50
2022-10-02T02:20:00.938Z,35.55
2022-10-02T02:22:31.445Z,36.70
2022-10-02T02:25:03.586Z,36.75
2022-10-02T02:27:37.070Z,36.60
2022-10-02T02:30:08.694Z,36.15
2022-10-02T02:32:39.941Z,36.15
2022-10-02T02:35:15.102Z,36.05
2022-10-02T02:37:44.905Z,35.83
2022-10-02T02:40:17.161Z,36.30
2022-10-02T02:42:54.375Z,36.60
2022-10-02T02:45:25.515Z,36.58
2022-10-02T02:47:56.194Z,36.53
2022-10-02T02:50:30.400Z,36.47
2022-10-02T02:53:03.028Z,35.58
2022-10-02T02:55:34.707Z,35.30
2022-10-02T02:58:08.901Z,35.17
2022-10-02T03:00:37.016Z,35.70
2022-10-02T03:03:05.390Z,34.70
2022-10-02T03:05:35.379Z,35.08
2022-10-02T03:08:13.296Z,35.97
2022-10-02T03:10:51.175Z,36.63
2022-10-02T03:13:33.163Z,35.25
2022-10-02T03:16:16.946Z,35.70
2022-10-02T03:19:07.437Z,34.53
2022-10-02T03:21:40.980Z,35.15
2022-10-02T03:24:17.849Z,33.53
2022-10-02T03:26:52.517Z,34.95
2022-10-02T03:29:29.397Z,33.88
2022-10-02T03:31:59.700Z,34.20
2022-10-02T03:34:28.030Z,33.05
2022-10-02T03:36:55.981Z,33.65
2022-10-02T03:39:25.586Z,34.75
2022-10-02T03:41:54.634Z,35.28
2022-10-02T03:44:24.039Z,33.65
2022-10-02T03:46:52.025Z,34.60
2022-10-02T03:49:20.021Z,34.85
2022-10-02T03:51:47.993Z,34.53
2022-10-02T03:54:18.900Z,34.60
2022-10-02T03:56:55.590Z,34.58
2022-10-02T03:59:41.084Z,33.42
2022-10-02T04:02:17.819Z,35.45
2022-10-02T04:04:50.537Z,35.55
2022-10-02T04:07:24.469Z,35.10
2022-10-02T04:10:02.059Z,34.83
2022-10-02T04:12:35.804Z,35.70
2022-10-02T04:15:15.884Z,36.25
2022-10-02T04:17:48.993Z,34.55
2022-10-02T04:20:21.401Z,35.35
2022-10-02T04:22:57.507Z,35.97
2022-10-02T04:25:28.904Z,36.83
2022-10-02T04:28:02.581Z,36.13
2022-10-02T04:30:32.132Z,36.33
2022-10-02T04:33:11.797Z,36.20
2022-10-02T04:35:47.437Z,35.50
2022-10-02T04:38:35.551Z,35.88
2022-10-02T04:41:35.228Z,35.53
2022-10-02T04:44:16.280Z,35.70
2022-10-02T04:47:08.333Z,35.65
2022-10-02T04:49:59.965Z,34.75
2022-10-02T04:52:46.478Z,35.53
2022-10-02T04:55:31.492Z,35.80
2022-10-02T04:58:18.497Z,36.15
2022-10-02T05:00:49.868Z,35.08
2022-10-02T05:03:33.116Z,34.45
2022-10-02T05:06:18.189Z,33.67
2022-10-02T05:09:04.833Z,35.00
2022-10-02T05:11:53.039Z,33.45
2022-10-02T05:14:55.069Z,33.78
2022-10-02T05:17:47.261Z,33.10
2022-10-02T05:20:41.274Z,31.20
2022-10-02T05:23:22.411Z,29.67
2022-10-02T05:26:18.796Z,31.48
2022-10-02T05:29:02.733Z,30.88
2022-10-02T05:31:46.653Z,31.52
2022-10-02T05:34:32.609Z,31.63
2022-10-02T05:37:15.113Z,30.58
2022-10-02T05:39:52.727Z,29.90
2022-10-02T05:42:28.644Z,30.52
2022-10-02T05:45:04.110Z,31.30
2022-10-02T05:47:35.952Z,31.20
2022-10-02T05:50:15.353Z,29.98
2022-10-02T05:52:51.784Z,29.70
2022-10-02T05:55:24.924Z,30.13
2022-10-02T05:57:59.126Z,29.92
2022-10-02T06:00:33.730Z,31.00
2022-10-02T06:03:12.297Z,30.65
2022-10-02T06:05:50.508Z,31.45
2022-10-02T06:08:27.498Z,30.67
2022-10-02T06:11:01.048Z,31.23
2022-10-02T06:13:35.640Z,31.95
2022-10-02T06:16:11.410Z,30.38
2022-10-02T06:18:46.660Z,31.02
2022-10-02T06:21:26.326Z,30.55
2022-10-02T06:23:59.586Z,30.73
2022-10-02T06:26:39.480Z,28.85
2022-10-02T06:29:18.253Z,29.95
2022-10-02T06:31:53.986Z,28.67
2022-10-02T06:34:22.350Z,27.65
2022-10-02T06:37:12.743Z,28.48
2022-10-02T06:39:58.981Z,28.70
2022-10-02T06:42:39.468Z,27.60
2022-10-02T06:45:17.113Z,27.60
2022-10-02T06:48:06.567Z,29.20
2022-10-02T06:50:49.309Z,27.92
2022-10-02T06:53:34.213Z,27.63
2022-10-02T06:56:17.295Z,26.40
2022-10-02T06:58:57.291Z,27.23
2022-10-02T07:01:38.641Z,25.95
2022-10-02T07:04:42.292Z,25.92
2022-10-02T07:07:30.837Z,25.75
2022-10-02T07:10:15.489Z,24.88
2022-10-02T07:13:09.485Z,27.25
2022-10-02T07:16:08.978Z,27.80
2022-10-02T07:18:53.940Z,27.05
2022-10-02T07:21:32.942Z,28.13
2022-10-02T07:24:20.668Z,28.17
2022-10-02T07:26:53.574Z,27.58
2022-10-02T07:29:35.937Z,27.42
2022-10-02T07:32:24.074Z,28.33
2022-10-02T07:35:03.160Z,28.55
2022-10-02T07:37:42.434Z,28.85
2022-10-02T07:40:30.021Z,30.27
2022-10-02T07:43:13.701Z,30.02
2022-10-02T07:45:55.752Z,30.00
2022-10-02T07:48:36.003Z,30.10
2022-10-02T07:51:33.377Z,29.35
2022-10-02T07:54:15.884Z,29.10
2022-10-02T07:56:46.735Z,29.88
2022-10-02T07:59:17.836Z,30.15
2022-10-02T08:01:50.355Z,29.73
2022-10-02T08:04:23.264Z,29.52
2022-10-02T08:06:58.472Z,30.42
2022-10-02T08:09:33.809Z,30.85
2022-10-02T08:12:09.289Z,30.80
2022-10-02T08:14:41.543Z,31.10
2022-10-02T08:17:27.992Z,30.65
2022-10-02T08:20:03.252Z,31.48
2022-10-02T08:22:35.945Z,29.88
2022-10-02T08:25:15.252Z,29.77
2022-10-02T08:27:53.149Z,29.60
2022-10-02T08:30:23.549Z,29.98
2022-10-02T08:32:54.734Z,31.65
2022-10-02T08:35:27.821Z,31.08
2022-10-02T08:38:12.798Z,31.52
2022-10-02T08:41:12.463Z,30.42
2022-10-02T08:44:16.793Z,29.63
2022-10-02T08:47:14.001Z,31.23
2022-10-02T08:50:15.937Z,30.20
2022-10-02T08:53:22.176Z,31.65
2022-10-02T08:56:06.463Z,30.38
2022-10-02T08:59:07.665Z,31.77
2022-10-02T09:02:02.027Z,30.15
2022-10-02T09:05:09.865Z,30.83
2022-10-02T09:11:07.172Z,31.27
2022-10-02T09:14:15.995Z,30.98
2022-10-02T09:17:06.159Z,31.05
2022-10-02T09:19:46.370Z,30.35
2022-10-02T09:22:37.376Z,29.23
2022-10-02T09:25:25.018Z,32.35
2022-10-02T09:28:30.610Z,30.35
2022-10-02T09:31:31.947Z,29.83
2022-10-02T09:34:24.148Z,27.92
2022-10-02T09:37:24.889Z,25.25
2022-10-02T09:40:32.942Z,24.08
2022-10-02T09:43:25.851Z,23.25
2022-10-02T09:46:33.846Z,21.27
2022-10-02T09:49:34.695Z,21.23
2022-10-02T09:52:26.952Z,21.35
2022-10-02T09:55:30.303Z,19.13
2022-10-02T09:58:23.454Z,20.20
2022-10-02T10:01:23.496Z,14.45
2022-10-02T10:04:24.265Z,14.60
2022-10-02T10:07:14.586Z,13.95
2022-10-02T10:10:19.511Z,15.27
2022-10-02T10:13:17.602Z,15.75
2022-10-02T10:16:20.175Z,10.70
2022-10-02T10:19:51.270Z,5.05
2022-10-02T10:22:55.324Z,3.85
2022-10-02T10:25:50.345Z,3.83
2022-10-02T10:28:57.576Z,3.67
2022-10-02T10:31:54.803Z,4.70
2022-10-02T10:34:57.206Z,4.60
2022-10-02T10:38:02.892Z,3.20
2022-10-02T10:40:43.814Z,3.17
2022-10-02T10:43:45.114Z,3.13
2022-10-02T10:46:55.531Z,3.22
2022-10-02T10:50:04.093Z,2.72
2022-10-02T10:52:57.496Z,3.03
2022-10-02T10:55:46.281Z,2.78
2022-10-02T10:58:21.651Z,3.00
2022-10-02T11:01:07.055Z,2.95
2022-10-02T11:04:00.194Z,3.53
2022-10-02T11:06:51.330Z,2.80
2022-10-02T11:09:55.678Z,4.20
2022-10-02T11:12:58.226Z,2.90
2022-10-02T11:15:48.292Z,3.50
2022-10-02T11:18:38.385Z,3.40
2022-10-02T11:21:29.532Z,3.05
2022-10-02T11:24:11.172Z,2.65
2022-10-02T11:27:09.455Z,3.20
2022-10-02T11:30:20.684Z,3.03
2022-10-02T11:33:19.222Z,2.60
2022-10-02T11:36:29.138Z,2.63
2022-10-02T11:39:28.492Z,2.63
2022-10-02T11:42:33.418Z,2.75
2022-10-02T11:45:23.124Z,2.75
2022-10-02T11:48:24.305Z,2.90
2022-10-02T11:51:13.911Z,3.10
2022-10-02T11:54:20.346Z,2.60
2022-10-02T11:57:03.403Z,2.92
2022-10-02T11:59:57.547Z,2.97
2022-10-02T12:02:36.074Z,2.78
2022-10-02T12:05:21.734Z,3.22
2022-10-02T12:08:01.659Z,3.10
2022-10-02T12:10:41.396Z,3.35
2022-10-02T12:13:29.850Z,2.97
2022-10-02T12:16:06.902Z,2.90
2022-10-02T12:18:51.910Z,3.60
2022-10-02T12:21:52.454Z,3.70
2022-10-02T12:24:47.896Z,2.72
2022-10-02T12:27:26.793Z,2.90
2022-10-02T12:30:04.207Z,3.33
2022-10-02T12:32:49.873Z,2.60
2022-10-02T12:35:44.342Z,2.65
2022-10-02T12:38:26.752Z,4.43
2022-10-02T12:41:02.425Z,3.63
2022-10-02T12:43:55.577Z,2.88
2022-10-02T12:46:59.770Z,3.10
2022-10-02T12:49:43.056Z,3.47
2022-10-02T12:52:40.583Z,3.20
2022-10-02T12:55:38.145Z,3.53
2022-10-02T12:58:14.874Z,3.08
2022-10-02T13:01:07.068Z,3.25
2022-10-02T13:04:17.413Z,3.30
2022-10-02T13:07:19.722Z,2.90
2022-10-02T13:09:56.088Z,2.72
2022-10-02T13:12:41.418Z,3.03
2022-10-02T13:15:37.378Z,3.13
2022-10-02T13:18:22.776Z,2.95
2022-10-02T13:21:04.086Z,2.90
2022-10-02T13:23:42.007Z,3.30
2022-10-02T13:26:21.239Z,2.90
2022-10-02T13:29:18.521Z,3.28
2022-10-02T13:32:05.535Z,2.47
2022-10-02T13:34:46.067Z,2.88
2022-10-02T13:37:24.919Z,2.97
2022-10-02T13:40:14.560Z,3.30
2022-10-02T13:43:05.994Z,2.78
2022-10-02T13:45:42.189Z,2.97
2022-10-02T13:48:19.137Z,3.42
2022-10-02T13:50:53.610Z,2.92
2022-10-02T13:53:49.418Z,3.17
2022-10-02T13:56:29.862Z,2.90
2022-10-02T13:59:37.284Z,3.78
2022-10-02T14:02:21.133Z,3.53
2022-10-02T14:05:00.142Z,3.22
2022-10-02T14:07:44.973Z,3.03
2022-10-02T14:10:28.964Z,2.83
2022-10-02T14:13:14.600Z,2.95
2022-10-02T14:15:57.765Z,2.88
2022-10-02T14:18:38.545Z,2.95
2022-10-02T14:21:18.344Z,3.35
2022-10-02T14:24:04.990Z,3.08
2022-10-02T14:26:45.816Z,3.25
2022-10-02T14:29:29.061Z,2.92
2022-10-02T14:32:42.822Z,2.65
2022-10-02T14:35:36.026Z,3.03
2022-10-02T14:38:31.466Z,3.13
2022-10-02T14:41:03.853Z,3.08
2022-10-02T14:43:57.921Z,3.55
2022-10-02T14:46:50.897Z,3.33
2022-10-02T14:49:32.397Z,3.42
2022-10-02T14:52:22.663Z,2.90
2022-10-02T14:55:21.336Z,3.47
2022-10-02T14:58:14.694Z,3.13
2022-10-02T15:00:56.645Z,2.42
2022-10-02T15:03:56.977Z,3.13
2022-10-02T15:06:37.504Z,2.50
2022-10-02T15:09:14.546Z,2.33
2022-10-02T15:11:56.583Z,3.28
2022-10-02T15:14:35.633Z,3.03
2022-10-02T15:17:27.151Z,2.55
2022-10-02T15:20:04.170Z,3.38
2022-10-02T15:22:38.569Z,2.90
2022-10-02T15:25:22.078Z,3.88
2022-10-02T15:28:24.132Z,3.13
2022-10-02T15:30:57.552Z,2.80
2022-10-02T15:33:34.413Z,2.83
2022-10-02T15:36:23.643Z,3.00
2022-10-02T15:39:17.350Z,3.03
2022-10-02T15:41:50.884Z,2.95
2022-10-02T15:44:33.353Z,2.83
2022-10-02T15:47:13.797Z,2.70
2022-10-02T15:49:58.495Z,2.63
2022-10-02T15:52:36.099Z,3.30
2022-10-02T15:55:19.858Z,2.70
2022-10-02T15:58:08.505Z,2.38
2022-10-02T16:01:00.898Z,3.28
2022-10-02T16:03:38.295Z,2.60
2022-10-02T16:06:16.347Z,2.55
2022-10-02T16:09:17.606Z,2.53
2022-10-02T16:12:10.003Z,2.55
2022-10-02T16:14:48.716Z,2.60
2022-10-02T16:17:40.649Z,2.45
2022-10-02T16:20:24.084Z,2.38
2022-10-02T16:23:07.524Z,2.67
2022-10-02T16:25:51.390Z,2.47
2022-10-02T16:28:29.255Z,3.00
2022-10-02T16:31:15.483Z,2.80
2022-10-02T16:33:52.742Z,3.28
2022-10-02T16:36:32.010Z,2.42
2022-10-02T16:39:16.968Z,2.67
2022-10-02T16:42:01.771Z,2.85
2022-10-02T16:44:52.869Z,2.65
2022-10-02T16:47:29.689Z,2.97
2022-10-02T16:50:03.599Z,2.50
2022-10-02T16:52:39.066Z,2.70
2022-10-02T16:55:19.681Z,2.53
2022-10-02T16:57:59.758Z,3.17
2022-10-02T17:00:32.245Z,2.88
2022-10-02T17:03:11.897Z,3.03
2022-10-02T17:05:49.702Z,2.80
2022-10-02T17:08:29.441Z,2.28
2022-10-02T17:11:09.942Z,2.53
2022-10-02T17:13:49.322Z,2.30
2022-10-02T17:16:24.287Z,2.60
2022-10-02T17:18:57.536Z,2.90
2022-10-02T17:21:30.697Z,2.50
2022-10-02T17:24:31.324Z,2.70
2022-10-02T17:27:10.328Z,2.55
2022-10-02T17:29:45.740Z,3.03
2022-10-02T17:32:14.282Z,2.33
2022-10-02T17:34:51.231Z,2.50
2022-10-02T17:37:47.479Z,2.60
2022-10-02T17:40:21.040Z,2.70
2022-10-02T17:42:54.887Z,2.53
2022-10-02T17:45:32.948Z,2.40
2022-10-02T17:48:22.167Z,2.58
2022-10-02T17:54:47.020Z,2.72
2022-10-02T17:57:36.838Z,2.83
2022-10-02T18:00:15.419Z,3.10
2022-10-02T18:03:20.556Z,2.85
2022-10-02T18:05:59.581Z,4.10
2022-10-02T18:08:59.650Z,2.97
2022-10-02T18:11:52.204Z,2.92
2022-10-02T18:14:29.232Z,3.30
2022-10-02T18:17:11.894Z,3.38
2022-10-02T18:19:56.208Z,3.28
2022-10-02T18:22:39.997Z,3.13
2022-10-02T18:25:51.120Z,3.50
2022-10-02T18:28:37.608Z,3.83
2022-10-02T18:31:44.297Z,4.60
2022-10-02T18:34:43.607Z,4.53
2022-10-02T18:37:33.918Z,4.13
2022-10-02T18:40:17.413Z,4.20
2022-10-02T18:43:02.339Z,3.58
2022-10-02T18:45:49.485Z,3.85
2022-10-02T18:48:46.381Z,4.82
2022-10-02T18:51:32.934Z,4.63
2022-10-02T18:54:17.574Z,5.13
2022-10-02T18:56:53.424Z,5.30
2022-10-02T18:59:34.377Z,5.38
2022-10-02T19:02:16.683Z,8.55
2022-10-02T19:05:13.207Z,6.65
2022-10-02T19:07:44.767Z,7.20
2022-10-02T19:10:40.322Z,8.48
2022-10-02T19:13:18.304Z,8.15
2022-10-02T19:15:48.730Z,8.85
2022-10-02T19:18:20.511Z,9.88
2022-10-02T19:20:56.187Z,10.45
2022-10-02T19:23:29.178Z,11.52
2022-10-02T19:26:00.717Z,11.18
2022-10-02T19:28:31.064Z,11.95
2022-10-02T19:31:02.207Z,11.52
2022-10-02T19:33:43.516Z,12.57
2022-10-02T19:36:23.161Z,12.65
2022-10-02T19:38:54.626Z,13.35
2022-10-02T19:41:23.738Z,14.90
2022-10-02T19:43:57.570Z,14.80
2022-10-02T19:46:37.025Z,16.70
2022-10-02T19:49:08.245Z,16.10
2022-10-02T19:51:44.768Z,18.38
2022-10-02T19:54:18.489Z,19.20
2022-10-02T19:56:47.187Z,19.45
2022-10-02T19:59:19.487Z,22.33
2022-10-02T20:01:51.253Z,21.02
2022-10-02T20:04:23.692Z,22.30
2022-10-02T20:06:56.441Z,22.52
2022-10-02T20:09:30.878Z,23.08
2022-10-02T20:12:03.415Z,23.73
2022-10-02T20:14:36.030Z,26.65
2022-10-02T20:17:09.275Z,26.75
2022-10-02T20:19:43.816Z,28.30
2022-10-02T20:22:25.934Z,26.95
2022-10-02T20:24:58.494Z,28.38
2022-10-02T20:27:37.191Z,26.85
2022-10-02T20:30:08.144Z,26.60
2022-10-02T20:32:40.401Z,27.38
2022-10-02T20:35:15.943Z,26.88
2022-10-02T20:37:46.660Z,25.23
2022-10-02T20:40:19.175Z,30.20
2022-10-02T20:42:55.252Z,29.67
2022-10-02T20:45:28.143Z,29.67
2022-10-02T20:48:26.229Z,29.58
2022-10-02T20:51:06.656Z,30.15
2022-10-02T20:54:04.498Z,31.50
2022-10-02T20:57:11.381Z,30.70
2022-10-02T21:00:10.249Z,30.48
2022-10-02T21:03:10.188Z,32.53
2022-10-02T21:06:17.958Z,31.42
2022-10-02T21:09:14.617Z,31.38
2022-10-02T21:12:00.873Z,31.17
2022-10-02T21:14:54.185Z,33.20
2022-10-02T21:18:06.880Z,32.55
2022-10-02T21:21:00.217Z,32.00
2022-10-02T21:23:56.031Z,33.50
2022-10-02T21:26:50.572Z,33.10
2022-10-02T21:29:44.505Z,33.25
2022-10-02T21:32:38.369Z,34.05
2022-10-02T21:35:16.727Z,34.60
2022-10-02T21:38:01.373Z,33.50
2022-10-02T21:40:57.823Z,33.63
2022-10-02T21:44:17.935Z,34.60
2022-10-02T21:47:07.226Z,35.63
2022-10-02T21:50:12.890Z,35.47
2022-10-02T21:53:16.720Z,35.47
2022-10-02T21:56:34.983Z,35.22
2022-10-02T21:59:26.691Z,35.65
2022-10-02T22:02:21.272Z,34.58
2022-10-02T22:05:31.071Z,33.42
2022-10-02T22:08:08.391Z,33.45
2022-10-02T22:10:44.242Z,33.05
2022-10-02T22:13:26.394Z,33.60
2022-10-02T22:16:09.168Z,34.60
2022-10-02T22:18:50.016Z,34.65
2022-10-02T22:21:41.102Z,33.85
2022-10-02T22:24:25.828Z,34.45
2022-10-02T22:27:18.926Z,34.20
2022-10-02T22:29:50.351Z,34.53
2022-10-02T22:33:04.547Z,33.88
2022-10-02T22:35:42.874Z,34.33
2022-10-02T22:38:15.669Z,32.53
2022-10-02T22:40:51.386Z,32.83
2022-10-02T22:43:29.889Z,32.33
2022-10-02T22:46:05.246Z,32.58
2022-10-02T22:48:40.095Z,31.95
2022-10-02T22:51:17.848Z,32.67
2022-10-02T22:53:50.778Z,33.15
2022-10-02T22:56:28.669Z,33.55
2022-10-02T22:59:03.436Z,33.20
2022-10-02T23:01:41.873Z,33.42
2022-10-02T23:04:22.440Z,31.23
2022-10-02T23:06:54.949Z,31.35
2022-10-02T23:09:27.986Z,32.92
2022-10-02T23:12:06.002Z,32.53
2022-10-02T23:14:43.402Z,32.13
2022-10-02T23:17:21.988Z,31.65
2022-10-02T23:19:55.843Z,31.58
2022-10-02T23:22:29.223Z,31.98
2022-10-02T23:25:04.510Z,32.03
2022-10-02T23:27:45.825Z,32.05
2022-10-02T23:30:20.340Z,30.88
2022-10-02T23:32:55.027Z,30.30
2022-10-02T23:35:30.090Z,30.10
2022-10-02T23:38:07.008Z,32.10
2022-10-02T23:40:55.820Z,31.27
2022-10-02T23:43:29.964Z,31.27
2022-10-02T23:46:02.355Z,31.73
2022-10-02T23:48:33.584Z,31.20
2022-10-02T23:51:15.737Z,31.05
2022-10-02T23:54:04.008Z,31.05
2022-10-02T23:56:55.492Z,31.65
2022-10-02T23:59:39.883Z,31.75
